sensor_id;sensor_type;location;lat;lon;timestamp;P1;durP1;ratioP1;P2;durP2;ratioP2
42104;SDS011;61464;51.472;5.712;2022-07-10T00:00:42;6.95;;;1.50;;
42104;SDS011;61464;51.472;5.712;2022-07-10T00:03:08;6.07;;;1.50;;
42104;SDS011;61464;51.472;5.712;2022-07-10T00:05:34;7.63;;;1.92;;
42104;SDS011;61464;51.472;5.712;2022-07-10T00:08:00;10.90;;;1.73;;
42104;SDS011;61464;51.472;5.712;2022-07-10T00:10:27;5.95;;;1.90;;
42104;SDS011;61464;51.472;5.712;2022-07-10T00:12:53;8.10;;;1.88;;
42104;SDS011;61464;51.472;5.712;2022-07-10T00:15:20;4.57;;;1.73;;
42104;SDS011;61464;51.472;5.712;2022-07-10T00:17:46;5.25;;;1.95;;
42104;SDS011;61464;51.472;5.712;2022-07-10T00:20:12;6.10;;;1.67;;
42104;SDS011;61464;51.472;5.712;2022-07-10T00:22:39;3.60;;;1.90;;
42104;SDS011;61464;51.472;5.712;2022-07-10T00:25:06;10.27;;;1.88;;
42104;SDS011;61464;51.472;5.712;2022-07-10T00:27:35;8.32;;;1.83;;
42104;SDS011;61464;51.472;5.712;2022-07-10T00:30:01;7.13;;;2.30;;
42104;SDS011;61464;51.472;5.712;2022-07-10T00:32:28;6.38;;;1.98;;
42104;SDS011;61464;51.472;5.712;2022-07-10T00:34:54;5.80;;;1.55;;
42104;SDS011;61464;51.472;5.712;2022-07-10T00:37:20;6.50;;;1.85;;
42104;SDS011;61464;51.472;5.712;2022-07-10T00:39:46;6.65;;;2.17;;
42104;SDS011;61464;51.472;5.712;2022-07-10T00:42:13;6.10;;;1.88;;
42104;SDS011;61464;51.472;5.712;2022-07-10T00:44:40;8.20;;;1.70;;
42104;SDS011;61464;51.472;5.712;2022-07-10T00:47:08;6.07;;;1.80;;
42104;SDS011;61464;51.472;5.712;2022-07-10T00:49:36;8.05;;;2.03;;
42104;SDS011;61464;51.472;5.712;2022-07-10T00:52:06;7.03;;;2.47;;
42104;SDS011;61464;51.472;5.712;2022-07-10T00:54:35;6.00;;;1.98;;
42104;SDS011;61464;51.472;5.712;2022-07-10T00:57:05;6.63;;;2.00;;
42104;SDS011;61464;51.472;5.712;2022-07-10T00:59:33;9.38;;;1.90;;
42104;SDS011;61464;51.472;5.712;2022-07-10T01:02:00;7.35;;;2.00;;
42104;SDS011;61464;51.472;5.712;2022-07-10T01:04:30;11.10;;;2.20;;
42104;SDS011;61464;51.472;5.712;2022-07-10T01:06:57;7.80;;;1.98;;
42104;SDS011;61464;51.472;5.712;2022-07-10T01:09:23;4.25;;;1.52;;
42104;SDS011;61464;51.472;5.712;2022-07-10T01:11:50;4.20;;;1.83;;
42104;SDS011;61464;51.472;5.712;2022-07-10T01:14:16;7.88;;;2.35;;
42104;SDS011;61464;51.472;5.712;2022-07-10T01:16:42;5.55;;;1.95;;
42104;SDS011;61464;51.472;5.712;2022-07-10T01:19:08;5.82;;;1.98;;
42104;SDS011;61464;51.472;5.712;2022-07-10T01:21:35;5.93;;;2.00;;
42104;SDS011;61464;51.472;5.712;2022-07-10T01:24:08;3.78;;;2.00;;
42104;SDS011;61464;51.472;5.712;2022-07-10T01:26:35;7.38;;;2.40;;
42104;SDS011;61464;51.472;5.712;2022-07-10T01:29:07;8.35;;;2.63;;
42104;SDS011;61464;51.472;5.712;2022-07-10T01:31:34;8.68;;;2.30;;
42104;SDS011;61464;51.472;5.712;2022-07-10T01:34:00;8.15;;;2.20;;
42104;SDS011;61464;51.472;5.712;2022-07-10T01:36:29;7.43;;;2.20;;
42104;SDS011;61464;51.472;5.712;2022-07-10T01:38:56;9.50;;;2.50;;
42104;SDS011;61464;51.472;5.712;2022-07-10T01:41:23;7.72;;;2.13;;
42104;SDS011;61464;51.472;5.712;2022-07-10T01:43:50;7.50;;;2.40;;
42104;SDS011;61464;51.472;5.712;2022-07-10T01:46:16;8.57;;;2.60;;
42104;SDS011;61464;51.472;5.712;2022-07-10T01:48:42;7.22;;;2.40;;
42104;SDS011;61464;51.472;5.712;2022-07-10T01:51:09;7.70;;;2.60;;
42104;SDS011;61464;51.472;5.712;2022-07-10T01:53:36;10.40;;;2.70;;
42104;SDS011;61464;51.472;5.712;2022-07-10T01:56:03;6.18;;;2.45;;
42104;SDS011;61464;51.472;5.712;2022-07-10T01:58:32;8.88;;;2.47;;
42104;SDS011;61464;51.472;5.712;2022-07-10T02:00:58;7.90;;;2.40;;
42104;SDS011;61464;51.472;5.712;2022-07-10T02:03:24;10.25;;;2.70;;
42104;SDS011;61464;51.472;5.712;2022-07-10T02:06:08;7.55;;;2.38;;
42104;SDS011;61464;51.472;5.712;2022-07-10T02:08:34;6.57;;;2.40;;
42104;SDS011;61464;51.472;5.712;2022-07-10T02:11:00;10.57;;;2.90;;
42104;SDS011;61464;51.472;5.712;2022-07-10T02:13:26;4.55;;;2.05;;
42104;SDS011;61464;51.472;5.712;2022-07-10T02:15:53;10.68;;;2.70;;
42104;SDS011;61464;51.472;5.712;2022-07-10T02:18:20;10.70;;;2.67;;
42104;SDS011;61464;51.472;5.712;2022-07-10T02:20:46;14.00;;;2.72;;
42104;SDS011;61464;51.472;5.712;2022-07-10T02:23:13;9.73;;;2.60;;
42104;SDS011;61464;51.472;5.712;2022-07-10T02:25:39;7.90;;;2.38;;
42104;SDS011;61464;51.472;5.712;2022-07-10T02:28:04;6.55;;;2.40;;
42104;SDS011;61464;51.472;5.712;2022-07-10T02:30:30;10.32;;;2.50;;
42104;SDS011;61464;51.472;5.712;2022-07-10T02:32:56;11.18;;;2.75;;
42104;SDS011;61464;51.472;5.712;2022-07-10T02:35:22;8.93;;;2.50;;
42104;SDS011;61464;51.472;5.712;2022-07-10T02:37:48;6.13;;;2.13;;
42104;SDS011;61464;51.472;5.712;2022-07-10T02:40:14;9.80;;;2.47;;
42104;SDS011;61464;51.472;5.712;2022-07-10T02:42:40;9.88;;;2.53;;
42104;SDS011;61464;51.472;5.712;2022-07-10T02:45:06;6.10;;;2.50;;
42104;SDS011;61464;51.472;5.712;2022-07-10T02:47:32;7.88;;;2.60;;
42104;SDS011;61464;51.472;5.712;2022-07-10T02:49:58;6.88;;;2.67;;
42104;SDS011;61464;51.472;5.712;2022-07-10T02:52:24;9.07;;;3.45;;
42104;SDS011;61464;51.472;5.712;2022-07-10T02:54:50;5.57;;;2.10;;
42104;SDS011;61464;51.472;5.712;2022-07-10T02:57:16;7.32;;;2.80;;
42104;SDS011;61464;51.472;5.712;2022-07-10T02:59:42;6.70;;;2.42;;
42104;SDS011;61464;51.472;5.712;2022-07-10T03:02:08;8.52;;;3.00;;
42104;SDS011;61464;51.472;5.712;2022-07-10T03:04:34;9.30;;;2.53;;
42104;SDS011;61464;51.472;5.712;2022-07-10T03:07:00;14.60;;;3.30;;
42104;SDS011;61464;51.472;5.712;2022-07-10T03:09:26;9.98;;;2.78;;
42104;SDS011;61464;51.472;5.712;2022-07-10T03:11:52;9.60;;;3.33;;
42104;SDS011;61464;51.472;5.712;2022-07-10T03:14:18;7.22;;;2.80;;
42104;SDS011;61464;51.472;5.712;2022-07-10T03:16:44;8.23;;;2.83;;
42104;SDS011;61464;51.472;5.712;2022-07-10T03:19:09;6.45;;;2.55;;
42104;SDS011;61464;51.472;5.712;2022-07-10T03:21:35;6.15;;;2.70;;
42104;SDS011;61464;51.472;5.712;2022-07-10T03:24:01;8.77;;;2.80;;
42104;SDS011;61464;51.472;5.712;2022-07-10T03:26:27;5.55;;;2.50;;
42104;SDS011;61464;51.472;5.712;2022-07-10T03:28:54;7.13;;;3.13;;
42104;SDS011;61464;51.472;5.712;2022-07-10T03:31:21;8.50;;;2.55;;
42104;SDS011;61464;51.472;5.712;2022-07-10T03:33:48;10.75;;;2.80;;
42104;SDS011;61464;51.472;5.712;2022-07-10T03:36:14;8.18;;;2.75;;
42104;SDS011;61464;51.472;5.712;2022-07-10T03:38:39;9.75;;;2.83;;
42104;SDS011;61464;51.472;5.712;2022-07-10T03:41:05;8.05;;;2.33;;
42104;SDS011;61464;51.472;5.712;2022-07-10T03:43:31;8.43;;;2.38;;
42104;SDS011;61464;51.472;5.712;2022-07-10T03:45:57;7.53;;;2.67;;
42104;SDS011;61464;51.472;5.712;2022-07-10T03:48:23;11.20;;;2.65;;
42104;SDS011;61464;51.472;5.712;2022-07-10T03:50:50;5.38;;;2.45;;
42104;SDS011;61464;51.472;5.712;2022-07-10T03:53:16;8.63;;;2.38;;
42104;SDS011;61464;51.472;5.712;2022-07-10T03:55:43;6.45;;;2.40;;
42104;SDS011;61464;51.472;5.712;2022-07-10T03:58:09;11.93;;;2.55;;
42104;SDS011;61464;51.472;5.712;2022-07-10T04:00:35;7.72;;;2.75;;
42104;SDS011;61464;51.472;5.712;2022-07-10T04:03:06;5.25;;;2.25;;
42104;SDS011;61464;51.472;5.712;2022-07-10T04:05:33;7.18;;;2.35;;
42104;SDS011;61464;51.472;5.712;2022-07-10T04:08:00;10.20;;;2.97;;
42104;SDS011;61464;51.472;5.712;2022-07-10T04:10:28;8.23;;;2.55;;
42104;SDS011;61464;51.472;5.712;2022-07-10T04:12:55;5.15;;;2.47;;
42104;SDS011;61464;51.472;5.712;2022-07-10T04:15:21;6.40;;;2.25;;
42104;SDS011;61464;51.472;5.712;2022-07-10T04:17:47;10.80;;;2.63;;
42104;SDS011;61464;51.472;5.712;2022-07-10T04:20:14;11.18;;;2.63;;
42104;SDS011;61464;51.472;5.712;2022-07-10T04:22:41;8.52;;;2.75;;
42104;SDS011;61464;51.472;5.712;2022-07-10T04:25:07;11.07;;;2.85;;
42104;SDS011;61464;51.472;5.712;2022-07-10T04:27:33;6.28;;;2.50;;
42104;SDS011;61464;51.472;5.712;2022-07-10T04:30:00;7.28;;;2.10;;
42104;SDS011;61464;51.472;5.712;2022-07-10T04:32:26;7.82;;;2.40;;
42104;SDS011;61464;51.472;5.712;2022-07-10T04:34:53;12.23;;;2.53;;
42104;SDS011;61464;51.472;5.712;2022-07-10T04:37:21;5.43;;;2.50;;
42104;SDS011;61464;51.472;5.712;2022-07-10T04:39:47;10.20;;;2.50;;
42104;SDS011;61464;51.472;5.712;2022-07-10T04:42:13;9.88;;;2.88;;
42104;SDS011;61464;51.472;5.712;2022-07-10T04:44:39;6.97;;;2.63;;
42104;SDS011;61464;51.472;5.712;2022-07-10T04:47:04;9.00;;;2.53;;
42104;SDS011;61464;51.472;5.712;2022-07-10T04:49:31;10.73;;;2.42;;
42104;SDS011;61464;51.472;5.712;2022-07-10T04:51:58;11.40;;;2.42;;
42104;SDS011;61464;51.472;5.712;2022-07-10T04:54:24;10.75;;;2.45;;
42104;SDS011;61464;51.472;5.712;2022-07-10T04:56:50;13.52;;;2.30;;
42104;SDS011;61464;51.472;5.712;2022-07-10T04:59:16;7.15;;;2.42;;
42104;SDS011;61464;51.472;5.712;2022-07-10T05:01:42;7.30;;;2.22;;
42104;SDS011;61464;51.472;5.712;2022-07-10T05:04:08;7.50;;;2.67;;
42104;SDS011;61464;51.472;5.712;2022-07-10T05:06:34;6.15;;;2.45;;
42104;SDS011;61464;51.472;5.712;2022-07-10T05:09:00;6.47;;;2.30;;
42104;SDS011;61464;51.472;5.712;2022-07-10T05:11:26;8.77;;;2.40;;
42104;SDS011;61464;51.472;5.712;2022-07-10T05:13:52;6.63;;;2.42;;
42104;SDS011;61464;51.472;5.712;2022-07-10T05:16:18;9.07;;;2.20;;
42104;SDS011;61464;51.472;5.712;2022-07-10T05:18:44;10.05;;;2.80;;
42104;SDS011;61464;51.472;5.712;2022-07-10T05:21:10;6.88;;;2.50;;
42104;SDS011;61464;51.472;5.712;2022-07-10T05:23:37;9.70;;;2.60;;
42104;SDS011;61464;51.472;5.712;2022-07-10T05:26:04;4.47;;;2.40;;
42104;SDS011;61464;51.472;5.712;2022-07-10T05:28:30;8.25;;;2.40;;
42104;SDS011;61464;51.472;5.712;2022-07-10T05:30:57;7.93;;;2.38;;
42104;SDS011;61464;51.472;5.712;2022-07-10T05:33:23;11.25;;;3.10;;
42104;SDS011;61464;51.472;5.712;2022-07-10T05:35:51;7.82;;;2.60;;
42104;SDS011;61464;51.472;5.712;2022-07-10T05:38:17;12.60;;;2.80;;
42104;SDS011;61464;51.472;5.712;2022-07-10T05:40:43;8.88;;;2.28;;
42104;SDS011;61464;51.472;5.712;2022-07-10T05:43:09;10.25;;;2.92;;
42104;SDS011;61464;51.472;5.712;2022-07-10T05:45:36;9.70;;;2.58;;
42104;SDS011;61464;51.472;5.712;2022-07-10T05:48:02;9.20;;;2.05;;
42104;SDS011;61464;51.472;5.712;2022-07-10T05:50:28;9.45;;;2.35;;
42104;SDS011;61464;51.472;5.712;2022-07-10T05:52:53;6.68;;;2.10;;
42104;SDS011;61464;51.472;5.712;2022-07-10T05:55:19;10.20;;;2.13;;
42104;SDS011;61464;51.472;5.712;2022-07-10T05:57:45;7.88;;;2.17;;
42104;SDS011;61464;51.472;5.712;2022-07-10T06:00:11;7.70;;;2.25;;
42104;SDS011;61464;51.472;5.712;2022-07-10T06:02:37;8.07;;;2.30;;
42104;SDS011;61464;51.472;5.712;2022-07-10T06:05:03;6.30;;;2.10;;
42104;SDS011;61464;51.472;5.712;2022-07-10T06:07:30;6.53;;;1.92;;
42104;SDS011;61464;51.472;5.712;2022-07-10T06:09:56;7.18;;;2.13;;
42104;SDS011;61464;51.472;5.712;2022-07-10T06:12:22;9.13;;;2.38;;
42104;SDS011;61464;51.472;5.712;2022-07-10T06:14:48;7.18;;;2.00;;
42104;SDS011;61464;51.472;5.712;2022-07-10T06:17:14;7.47;;;2.20;;
42104;SDS011;61464;51.472;5.712;2022-07-10T06:19:40;7.97;;;2.10;;
42104;SDS011;61464;51.472;5.712;2022-07-10T06:22:05;10.20;;;2.30;;
42104;SDS011;61464;51.472;5.712;2022-07-10T06:24:49;5.55;;;1.95;;
42104;SDS011;61464;51.472;5.712;2022-07-10T06:27:15;6.95;;;1.80;;
42104;SDS011;61464;51.472;5.712;2022-07-10T06:29:41;7.60;;;2.05;;
42104;SDS011;61464;51.472;5.712;2022-07-10T06:32:07;6.38;;;2.10;;
42104;SDS011;61464;51.472;5.712;2022-07-10T06:34:33;8.00;;;1.70;;
42104;SDS011;61464;51.472;5.712;2022-07-10T06:36:59;5.15;;;2.00;;
42104;SDS011;61464;51.472;5.712;2022-07-10T06:39:25;7.70;;;2.00;;
42104;SDS011;61464;51.472;5.712;2022-07-10T06:41:51;8.90;;;2.53;;
42104;SDS011;61464;51.472;5.712;2022-07-10T06:44:17;7.30;;;2.28;;
42104;SDS011;61464;51.472;5.712;2022-07-10T06:46:43;9.73;;;2.33;;
42104;SDS011;61464;51.472;5.712;2022-07-10T06:49:28;5.55;;;2.10;;
42104;SDS011;61464;51.472;5.712;2022-07-10T06:51:54;7.82;;;2.40;;
42104;SDS011;61464;51.472;5.712;2022-07-10T06:54:20;8.77;;;1.75;;
42104;SDS011;61464;51.472;5.712;2022-07-10T06:56:46;8.13;;;2.13;;
42104;SDS011;61464;51.472;5.712;2022-07-10T06:59:12;6.82;;;1.80;;
42104;SDS011;61464;51.472;5.712;2022-07-10T07:01:38;12.60;;;1.95;;
42104;SDS011;61464;51.472;5.712;2022-07-10T07:04:04;6.93;;;1.95;;
42104;SDS011;61464;51.472;5.712;2022-07-10T07:06:30;9.65;;;1.67;;
42104;SDS011;61464;51.472;5.712;2022-07-10T07:08:56;7.32;;;2.00;;
42104;SDS011;61464;51.472;5.712;2022-07-10T07:11:22;8.05;;;1.70;;
42104;SDS011;61464;51.472;5.712;2022-07-10T07:13:47;5.75;;;1.67;;
42104;SDS011;61464;51.472;5.712;2022-07-10T07:16:13;6.45;;;1.85;;
42104;SDS011;61464;51.472;5.712;2022-07-10T07:18:45;7.03;;;1.67;;
42104;SDS011;61464;51.472;5.712;2022-07-10T07:21:17;13.45;;;1.98;;
42104;SDS011;61464;51.472;5.712;2022-07-10T07:24:01;9.13;;;1.90;;
42104;SDS011;61464;51.472;5.712;2022-07-10T07:26:29;11.38;;;2.65;;
42104;SDS011;61464;51.472;5.712;2022-07-10T07:28:54;8.90;;;1.70;;
42104;SDS011;61464;51.472;5.712;2022-07-10T07:31:20;8.82;;;1.58;;
42104;SDS011;61464;51.472;5.712;2022-07-10T07:33:46;7.32;;;1.33;;
42104;SDS011;61464;51.472;5.712;2022-07-10T07:36:12;9.48;;;1.77;;
42104;SDS011;61464;51.472;5.712;2022-07-10T07:38:38;8.90;;;1.70;;
42104;SDS011;61464;51.472;5.712;2022-07-10T07:41:04;4.85;;;1.65;;
42104;SDS011;61464;51.472;5.712;2022-07-10T07:43:30;8.65;;;1.63;;
42104;SDS011;61464;51.472;5.712;2022-07-10T07:45:56;7.10;;;1.50;;
42104;SDS011;61464;51.472;5.712;2022-07-10T07:48:22;8.63;;;1.92;;
42104;SDS011;61464;51.472;5.712;2022-07-10T07:50:47;10.98;;;1.90;;
42104;SDS011;61464;51.472;5.712;2022-07-10T07:53:13;8.90;;;1.60;;
42104;SDS011;61464;51.472;5.712;2022-07-10T07:55:39;6.68;;;1.80;;
42104;SDS011;61464;51.472;5.712;2022-07-10T07:58:05;7.55;;;1.65;;
42104;SDS011;61464;51.472;5.712;2022-07-10T08:00:31;7.85;;;1.80;;
42104;SDS011;61464;51.472;5.712;2022-07-10T08:02:57;6.10;;;1.50;;
42104;SDS011;61464;51.472;5.712;2022-07-10T08:05:25;14.27;;;1.98;;
42104;SDS011;61464;51.472;5.712;2022-07-10T08:07:56;7.07;;;1.70;;
42104;SDS011;61464;51.472;5.712;2022-07-10T08:10:26;8.27;;;1.52;;
42104;SDS011;61464;51.472;5.712;2022-07-10T08:12:52;7.07;;;1.40;;
42104;SDS011;61464;51.472;5.712;2022-07-10T08:15:19;9.60;;;1.60;;
42104;SDS011;61464;51.472;5.712;2022-07-10T08:17:48;12.90;;;2.10;;
42104;SDS011;61464;51.472;5.712;2022-07-10T08:20:25;6.93;;;1.60;;
42104;SDS011;61464;51.472;5.712;2022-07-10T08:22:52;4.28;;;1.58;;
42104;SDS011;61464;51.472;5.712;2022-07-10T08:25:18;7.35;;;1.60;;
42104;SDS011;61464;51.472;5.712;2022-07-10T08:27:45;7.18;;;1.65;;
42104;SDS011;61464;51.472;5.712;2022-07-10T08:30:11;13.65;;;1.80;;
42104;SDS011;61464;51.472;5.712;2022-07-10T08:32:37;9.65;;;2.05;;
42104;SDS011;61464;51.472;5.712;2022-07-10T08:35:04;9.70;;;1.60;;
42104;SDS011;61464;51.472;5.712;2022-07-10T08:37:39;11.18;;;2.08;;
42104;SDS011;61464;51.472;5.712;2022-07-10T08:40:10;9.30;;;1.90;;
42104;SDS011;61464;51.472;5.712;2022-07-10T08:42:38;7.38;;;1.92;;
42104;SDS011;61464;51.472;5.712;2022-07-10T08:45:05;13.23;;;2.33;;
42104;SDS011;61464;51.472;5.712;2022-07-10T08:47:34;10.20;;;2.53;;
42104;SDS011;61464;51.472;5.712;2022-07-10T08:50:01;9.93;;;2.22;;
42104;SDS011;61464;51.472;5.712;2022-07-10T08:55:41;9.57;;;2.20;;
42104;SDS011;61464;51.472;5.712;2022-07-10T08:58:10;8.18;;;2.30;;
42104;SDS011;61464;51.472;5.712;2022-07-10T09:00:38;7.05;;;2.42;;
42104;SDS011;61464;51.472;5.712;2022-07-10T09:03:03;8.32;;;2.55;;
42104;SDS011;61464;51.472;5.712;2022-07-10T09:05:29;7.20;;;2.15;;
42104;SDS011;61464;51.472;5.712;2022-07-10T09:07:55;10.38;;;2.75;;
42104;SDS011;61464;51.472;5.712;2022-07-10T09:10:24;6.20;;;2.10;;
42104;SDS011;61464;51.472;5.712;2022-07-10T09:12:52;7.43;;;2.33;;
42104;SDS011;61464;51.472;5.712;2022-07-10T09:15:30;12.95;;;2.50;;
42104;SDS011;61464;51.472;5.712;2022-07-10T09:18:00;9.95;;;2.40;;
42104;SDS011;61464;51.472;5.712;2022-07-10T09:20:32;10.43;;;2.20;;
42104;SDS011;61464;51.472;5.712;2022-07-10T09:23:08;11.75;;;2.33;;
42104;SDS011;61464;51.472;5.712;2022-07-10T09:25:44;7.23;;;2.17;;
42104;SDS011;61464;51.472;5.712;2022-07-10T09:28:12;8.25;;;2.80;;
42104;SDS011;61464;51.472;5.712;2022-07-10T09:30:41;8.45;;;2.70;;
42104;SDS011;61464;51.472;5.712;2022-07-10T09:46:43;8.63;;;2.55;;
42104;SDS011;61464;51.472;5.712;2022-07-10T09:49:13;7.65;;;2.33;;
42104;SDS011;61464;51.472;5.712;2022-07-10T09:51:41;6.05;;;2.40;;
42104;SDS011;61464;51.472;5.712;2022-07-10T09:54:09;8.23;;;2.97;;
42104;SDS011;61464;51.472;5.712;2022-07-10T09:56:39;7.55;;;2.30;;
42104;SDS011;61464;51.472;5.712;2022-07-10T09:59:09;8.75;;;2.38;;
42104;SDS011;61464;51.472;5.712;2022-07-10T10:01:49;7.57;;;2.10;;
42104;SDS011;61464;51.472;5.712;2022-07-10T10:04:21;10.38;;;2.50;;
42104;SDS011;61464;51.472;5.712;2022-07-10T10:06:51;5.97;;;2.38;;
42104;SDS011;61464;51.472;5.712;2022-07-10T10:09:22;9.23;;;2.20;;
42104;SDS011;61464;51.472;5.712;2022-07-10T10:12:04;5.78;;;1.95;;
42104;SDS011;61464;51.472;5.712;2022-07-10T10:14:46;7.97;;;2.20;;
42104;SDS011;61464;51.472;5.712;2022-07-10T10:17:12;7.72;;;2.03;;
42104;SDS011;61464;51.472;5.712;2022-07-10T10:19:42;8.48;;;2.25;;
42104;SDS011;61464;51.472;5.712;2022-07-10T10:22:30;6.90;;;2.28;;
42104;SDS011;61464;51.472;5.712;2022-07-10T10:24:58;6.78;;;2.10;;
42104;SDS011;61464;51.472;5.712;2022-07-10T10:27:26;7.13;;;2.13;;
42104;SDS011;61464;51.472;5.712;2022-07-10T10:29:52;5.22;;;2.53;;
42104;SDS011;61464;51.472;5.712;2022-07-10T10:32:19;6.78;;;2.00;;
42104;SDS011;61464;51.472;5.712;2022-07-10T10:34:48;9.10;;;2.47;;
42104;SDS011;61464;51.472;5.712;2022-07-10T10:37:28;5.65;;;2.00;;
42104;SDS011;61464;51.472;5.712;2022-07-10T10:40:03;6.13;;;2.00;;
42104;SDS011;61464;51.472;5.712;2022-07-10T10:42:31;5.93;;;2.13;;
42104;SDS011;61464;51.472;5.712;2022-07-10T10:47:57;7.90;;;2.13;;
42104;SDS011;61464;51.472;5.712;2022-07-10T10:50:39;4.80;;;1.95;;
42104;SDS011;61464;51.472;5.712;2022-07-10T10:53:16;6.80;;;1.90;;
42104;SDS011;61464;51.472;5.712;2022-07-10T10:58:28;5.68;;;2.13;;
42104;SDS011;61464;51.472;5.712;2022-07-10T11:06:40;2.92;;;1.73;;
42104;SDS011;61464;51.472;5.712;2022-07-10T11:09:31;4.30;;;1.83;;
42104;SDS011;61464;51.472;5.712;2022-07-10T11:14:44;7.20;;;1.90;;
42104;SDS011;61464;51.472;5.712;2022-07-10T11:17:13;4.75;;;2.70;;
42104;SDS011;61464;51.472;5.712;2022-07-10T11:19:39;5.32;;;2.20;;
42104;SDS011;61464;51.472;5.712;2022-07-10T11:25:09;7.95;;;2.50;;
42104;SDS011;61464;51.472;5.712;2022-07-10T11:28:09;8.13;;;2.63;;
42104;SDS011;61464;51.472;5.712;2022-07-10T11:30:46;5.40;;;2.30;;
42104;SDS011;61464;51.472;5.712;2022-07-10T11:33:17;7.50;;;2.22;;
42104;SDS011;61464;51.472;5.712;2022-07-10T11:35:46;5.10;;;1.88;;
42104;SDS011;61464;51.472;5.712;2022-07-10T11:38:20;3.40;;;1.90;;
42104;SDS011;61464;51.472;5.712;2022-07-10T11:40:48;4.55;;;2.05;;
42104;SDS011;61464;51.472;5.712;2022-07-10T11:43:15;3.60;;;1.77;;
42104;SDS011;61464;51.472;5.712;2022-07-10T11:45:42;7.35;;;1.90;;
42104;SDS011;61464;51.472;5.712;2022-07-10T11:48:19;5.20;;;1.98;;
42104;SDS011;61464;51.472;5.712;2022-07-10T11:50:48;3.15;;;1.75;;
42104;SDS011;61464;51.472;5.712;2022-07-10T11:53:21;3.42;;;1.50;;
42104;SDS011;61464;51.472;5.712;2022-07-10T11:55:51;3.22;;;1.50;;
42104;SDS011;61464;51.472;5.712;2022-07-10T11:58:18;5.65;;;1.40;;
42104;SDS011;61464;51.472;5.712;2022-07-10T12:00:56;4.00;;;1.70;;
42104;SDS011;61464;51.472;5.712;2022-07-10T12:03:23;4.07;;;1.80;;
42104;SDS011;61464;51.472;5.712;2022-07-10T12:05:49;3.45;;;1.85;;
42104;SDS011;61464;51.472;5.712;2022-07-10T12:08:16;3.67;;;1.60;;
42104;SDS011;61464;51.472;5.712;2022-07-10T12:10:42;5.60;;;2.10;;
42104;SDS011;61464;51.472;5.712;2022-07-10T12:13:09;6.63;;;1.52;;
42104;SDS011;61464;51.472;5.712;2022-07-10T12:15:41;5.63;;;1.75;;
42104;SDS011;61464;51.472;5.712;2022-07-10T12:18:16;5.60;;;1.40;;
42104;SDS011;61464;51.472;5.712;2022-07-10T12:20:48;4.97;;;1.58;;
42104;SDS011;61464;51.472;5.712;2022-07-10T12:23:17;5.05;;;1.67;;
42104;SDS011;61464;51.472;5.712;2022-07-10T12:25:45;4.57;;;1.50;;
42104;SDS011;61464;51.472;5.712;2022-07-10T12:28:16;3.10;;;1.40;;
42104;SDS011;61464;51.472;5.712;2022-07-10T12:30:43;4.80;;;1.60;;
42104;SDS011;61464;51.472;5.712;2022-07-10T12:33:12;6.78;;;1.60;;
42104;SDS011;61464;51.472;5.712;2022-07-10T12:35:49;6.45;;;1.50;;
42104;SDS011;61464;51.472;5.712;2022-07-10T12:38:23;5.40;;;1.92;;
42104;SDS011;61464;51.472;5.712;2022-07-10T12:43:38;4.38;;;1.50;;
42104;SDS011;61464;51.472;5.712;2022-07-10T12:49:00;4.47;;;1.75;;
42104;SDS011;61464;51.472;5.712;2022-07-10T12:51:42;4.50;;;1.60;;
42104;SDS011;61464;51.472;5.712;2022-07-10T12:54:31;4.00;;;1.63;;
42104;SDS011;61464;51.472;5.712;2022-07-10T12:57:06;9.25;;;1.50;;
42104;SDS011;61464;51.472;5.712;2022-07-10T12:59:32;4.13;;;1.50;;
42104;SDS011;61464;51.472;5.712;2022-07-10T13:02:13;3.42;;;1.20;;
42104;SDS011;61464;51.472;5.712;2022-07-10T13:04:52;3.58;;;1.20;;
42104;SDS011;61464;51.472;5.712;2022-07-10T13:07:35;4.22;;;1.27;;
42104;SDS011;61464;51.472;5.712;2022-07-10T13:10:02;3.08;;;1.30;;
42104;SDS011;61464;51.472;5.712;2022-07-10T13:12:34;3.13;;;1.52;;
42104;SDS011;61464;51.472;5.712;2022-07-10T13:15:03;3.83;;;1.30;;
42104;SDS011;61464;51.472;5.712;2022-07-10T13:17:30;5.63;;;1.38;;
42104;SDS011;61464;51.472;5.712;2022-07-10T13:19:56;4.45;;;1.30;;
42104;SDS011;61464;51.472;5.712;2022-07-10T13:22:22;4.28;;;1.23;;
42104;SDS011;61464;51.472;5.712;2022-07-10T13:24:47;4.03;;;1.10;;
42104;SDS011;61464;51.472;5.712;2022-07-10T13:27:13;3.50;;;1.08;;
42104;SDS011;61464;51.472;5.712;2022-07-10T13:29:39;4.63;;;1.40;;
42104;SDS011;61464;51.472;5.712;2022-07-10T13:32:05;3.63;;;1.10;;
42104;SDS011;61464;51.472;5.712;2022-07-10T13:34:31;4.57;;;1.33;;
42104;SDS011;61464;51.472;5.712;2022-07-10T13:36:57;3.45;;;1.20;;
42104;SDS011;61464;51.472;5.712;2022-07-10T13:39:24;6.68;;;1.40;;
42104;SDS011;61464;51.472;5.712;2022-07-10T13:41:50;3.42;;;1.20;;
42104;SDS011;61464;51.472;5.712;2022-07-10T13:44:16;3.38;;;1.27;;
42104;SDS011;61464;51.472;5.712;2022-07-10T13:46:42;2.60;;;1.13;;
42104;SDS011;61464;51.472;5.712;2022-07-10T13:49:08;5.88;;;1.50;;
42104;SDS011;61464;51.472;5.712;2022-07-10T13:51:33;8.75;;;1.55;;
42104;SDS011;61464;51.472;5.712;2022-07-10T13:53:59;2.05;;;0.80;;
42104;SDS011;61464;51.472;5.712;2022-07-10T13:56:25;4.63;;;1.17;;
42104;SDS011;61464;51.472;5.712;2022-07-10T13:58:51;2.90;;;1.20;;
42104;SDS011;61464;51.472;5.712;2022-07-10T14:01:17;3.40;;;0.95;;
42104;SDS011;61464;51.472;5.712;2022-07-10T14:03:43;3.15;;;1.20;;
42104;SDS011;61464;51.472;5.712;2022-07-10T14:06:09;3.90;;;1.15;;
42104;SDS011;61464;51.472;5.712;2022-07-10T14:08:35;1.90;;;1.17;;
42104;SDS011;61464;51.472;5.712;2022-07-10T14:11:01;3.88;;;1.42;;
42104;SDS011;61464;51.472;5.712;2022-07-10T14:13:27;5.47;;;1.20;;
42104;SDS011;61464;51.472;5.712;2022-07-10T14:15:52;2.20;;;1.20;;
42104;SDS011;61464;51.472;5.712;2022-07-10T14:18:19;6.07;;;1.63;;
42104;SDS011;61464;51.472;5.712;2022-07-10T14:21:02;4.68;;;1.23;;
42104;SDS011;61464;51.472;5.712;2022-07-10T14:23:36;2.72;;;0.98;;
42104;SDS011;61464;51.472;5.712;2022-07-10T14:26:07;2.33;;;1.10;;
42104;SDS011;61464;51.472;5.712;2022-07-10T14:28:33;6.63;;;1.35;;
42104;SDS011;61464;51.472;5.712;2022-07-10T14:31:03;6.38;;;1.60;;
42104;SDS011;61464;51.472;5.712;2022-07-10T14:33:31;5.78;;;1.05;;
42104;SDS011;61464;51.472;5.712;2022-07-10T14:35:57;4.72;;;1.20;;
42104;SDS011;61464;51.472;5.712;2022-07-10T14:38:24;2.83;;;1.00;;
42104;SDS011;61464;51.472;5.712;2022-07-10T14:40:50;3.10;;;1.10;;
42104;SDS011;61464;51.472;5.712;2022-07-10T14:43:18;6.88;;;1.52;;
42104;SDS011;61464;51.472;5.712;2022-07-10T14:45:45;4.65;;;1.05;;
42104;SDS011;61464;51.472;5.712;2022-07-10T14:48:11;3.28;;;1.30;;
42104;SDS011;61464;51.472;5.712;2022-07-10T14:50:37;2.60;;;1.10;;
42104;SDS011;61464;51.472;5.712;2022-07-10T14:53:05;3.67;;;1.10;;
42104;SDS011;61464;51.472;5.712;2022-07-10T14:55:32;2.25;;;0.90;;
42104;SDS011;61464;51.472;5.712;2022-07-10T14:57:59;2.83;;;1.20;;
42104;SDS011;61464;51.472;5.712;2022-07-10T15:00:25;3.45;;;1.20;;
42104;SDS011;61464;51.472;5.712;2022-07-10T15:02:51;3.17;;;1.15;;
42104;SDS011;61464;51.472;5.712;2022-07-10T15:05:17;5.57;;;1.25;;
42104;SDS011;61464;51.472;5.712;2022-07-10T15:07:43;3.00;;;1.40;;
42104;SDS011;61464;51.472;5.712;2022-07-10T15:10:09;3.22;;;1.20;;
42104;SDS011;61464;51.472;5.712;2022-07-10T15:12:35;6.10;;;1.48;;
42104;SDS011;61464;51.472;5.712;2022-07-10T15:15:06;5.63;;;1.27;;
42104;SDS011;61464;51.472;5.712;2022-07-10T15:17:33;3.13;;;1.48;;
42104;SDS011;61464;51.472;5.712;2022-07-10T15:20:00;4.47;;;1.38;;
42104;SDS011;61464;51.472;5.712;2022-07-10T15:22:27;4.20;;;1.20;;
42104;SDS011;61464;51.472;5.712;2022-07-10T15:24:53;3.88;;;1.58;;
42104;SDS011;61464;51.472;5.712;2022-07-10T15:27:18;4.32;;;1.40;;
42104;SDS011;61464;51.472;5.712;2022-07-10T15:29:44;4.70;;;1.60;;